Time;durP1;ratioP1;P1;durP2;ratioP2;P2;SDS_P1;SDS_P2;PMS_P1;PMS_P2;Temp;Humidity;BMP_temperature;BMP_pressure;BME280_temperature;BME280_humidity;BME280_pressure;Samples;Min_cycle;Max_cycle;Signal;HPM_P1;HPM_P2
2021/06/06 04:00:44;;;;;;;48.80;43.17;;;18.40;99.90;;;;;;5805882;23;20484;-66
2021/06/06 04:03:11;;;;;;;48.50;42.03;;;18.40;99.90;;;;;;4937846;29;20950;-66
2021/06/06 04:05:38;;;;;;;50.13;43.17;;;18.40;99.90;;;;;;4938196;28;20588;-66
2021/06/06 04:08:06;;;;;;;51.23;43.23;;;18.40;99.90;;;;;;4937885;29;20465;-66
2021/06/06 04:10:33;;;;;;;54.57;44.63;;;18.40;99.90;;;;;;4938108;29;20489;-67
2021/06/06 04:13:00;;;;;;;51.13;42.90;;;18.40;99.90;;;;;;4937839;29;20469;-66
2021/06/06 04:15:26;;;;;;;53.30;43.93;;;18.40;99.90;;;;;;4938041;29;20505;-66
2021/06/06 04:17:54;;;;;;;51.63;42.70;;;18.40;99.90;;;;;;4938252;29;20480;-66
2021/06/06 04:20:23;;;;;;;52.77;43.20;;;18.40;99.90;;;;;;4937991;29;20970;-66
2021/06/06 04:22:49;;;;;;;52.13;44.33;;;18.40;99.90;;;;;;4937487;29;20500;-66
2021/06/06 04:25:18;;;;;;;56.83;45.57;;;18.40;99.90;;;;;;4937655;29;20871;-66
2021/06/06 04:27:44;;;;;;;58.90;46.40;;;18.30;99.90;;;;;;4937764;29;20470;-66
2021/06/06 04:30:13;;;;;;;61.07;45.43;;;18.40;99.90;;;;;;4937981;29;20469;-67
2021/06/06 04:32:39;;;;;;;59.27;47.17;;;18.30;99.90;;;;;;4939146;29;20465;-67
2021/06/06 04:35:08;;;;;;;58.70;44.77;;;18.30;99.90;;;;;;4937982;29;20521;-68
2021/06/06 04:37:34;;;;;;;63.10;46.33;;;18.30;99.90;;;;;;4941951;29;21029;-67
2021/06/06 04:40:03;;;;;;;61.33;48.50;;;18.30;99.90;;;;;;4942971;29;20473;-68
2021/06/06 04:42:29;;;;;;;62.80;47.13;;;18.20;99.90;;;;;;4939246;29;20572;-67
2021/06/06 04:44:55;;;;;;;56.97;44.70;;;18.20;99.90;;;;;;4938123;29;20526;-67
2021/06/06 04:47:22;;;;;;;66.60;50.27;;;18.20;99.90;;;;;;4938201;29;20477;-68
2021/06/06 04:49:49;;;;;;;65.27;48.93;;;18.20;99.90;;;;;;4937996;29;20465;-68
2021/06/06 04:52:16;;;;;;;68.10;50.87;;;18.20;99.90;;;;;;4936557;29;20497;-68
2021/06/06 04:54:44;;;;;;;71.87;51.60;;;18.20;99.90;;;;;;4937586;29;20469;-68
2021/06/06 04:57:10;;;;;;;75.27;53.40;;;18.10;99.90;;;;;;4936853;29;20570;-67
2021/06/06 04:59:37;;;;;;;82.50;55.97;;;18.10;99.90;;;;;;4937398;29;20510;-68
2021/06/06 05:02:05;;;;;;;85.17;55.70;;;18.10;99.90;;;;;;4936433;29;20881;-68
2021/06/06 05:04:31;;;;;;;92.70;56.73;;;18.10;99.90;;;;;;4937154;29;20466;-67
2021/06/06 05:06:58;;;;;;;81.10;53.00;;;18.10;99.90;;;;;;4935828;28;20848;-68
2021/06/06 05:09:25;;;;;;;91.80;55.93;;;18.00;99.90;;;;;;4936890;29;20489;-68
2021/06/06 05:11:52;;;;;;;92.50;57.07;;;18.00;99.90;;;;;;4936559;29;20500;-68
2021/06/06 05:14:18;;;;;;;93.80;58.80;;;18.00;99.90;;;;;;4936860;29;20465;-68
2021/06/06 05:16:45;;;;;;;110.87;60.87;;;18.00;99.90;;;;;;4936591;29;20889;-68
2021/06/06 05:19:11;;;;;;;109.83;63.30;;;18.00;99.90;;;;;;4936880;29;20469;-68
2021/06/06 05:21:38;;;;;;;109.50;64.60;;;18.10;99.90;;;;;;4936232;29;20489;-68
2021/06/06 05:24:06;;;;;;;111.73;65.10;;;18.10;99.90;;;;;;4936653;29;20560;-68
2021/06/06 05:26:34;;;;;;;118.80;67.50;;;18.00;99.90;;;;;;4936134;29;20468;-68
2021/06/06 05:29:00;;;;;;;127.60;70.77;;;18.00;99.90;;;;;;4936571;29;20466;-68
2021/06/06 05:31:26;;;;;;;124.50;70.00;;;18.00;99.90;;;;;;4936461;29;20847;-68
2021/06/06 05:33:52;;;;;;;118.40;66.60;;;18.00;99.90;;;;;;4936151;29;20962;-68
2021/06/06 05:36:19;;;;;;;127.20;69.53;;;17.90;99.90;;;;;;4936227;29;20923;-68
2021/06/06 05:38:45;;;;;;;127.50;69.53;;;17.90;99.90;;;;;;4936425;29;20832;-68
2021/06/06 05:41:11;;;;;;;119.07;70.37;;;17.90;99.90;;;;;;4936081;29;20482;-68
2021/06/06 05:43:39;;;;;;;118.10;68.50;;;18.00;99.90;;;;;;4936437;29;20823;-69
2021/06/06 05:46:07;;;;;;;118.20;66.73;;;17.90;99.90;;;;;;4936499;29;20466;-69
2021/06/06 05:48:34;;;;;;;116.57;66.87;;;17.90;99.90;;;;;;4936314;29;20469;-69
2021/06/06 05:51:02;;;;;;;128.87;68.80;;;17.90;99.90;;;;;;4936074;29;20521;-69
2021/06/06 05:53:29;;;;;;;112.90;66.77;;;17.90;99.90;;;;;;4935302;29;20980;-66
2021/06/06 05:55:56;;;;;;;104.67;64.90;;;17.90;99.90;;;;;;4935566;29;20489;-67
2021/06/06 05:58:22;;;;;;;111.97;65.70;;;17.90;99.90;;;;;;4935934;29;20462;-67
2021/06/06 06:00:52;;;;;;;118.27;65.67;;;17.90;99.90;;;;;;4935877;29;20490;-67
2021/06/06 06:03:18;;;;;;;116.40;66.10;;;17.90;99.90;;;;;;4935957;29;20540;-67
2021/06/06 06:05:45;;;;;;;114.80;66.77;;;17.90;99.90;;;;;;4936356;29;20465;-68
2021/06/06 06:08:19;;;;;;;114.03;64.77;;;17.90;99.90;;;;;;4936770;29;20475;-66
2021/06/06 06:10:45;;;;;;;103.17;60.40;;;17.90;99.90;;;;;;4938758;29;20485;-69
2021/06/06 06:13:11;;;;;;;106.10;63.90;;;17.90;99.90;;;;;;4940257;29;20461;-69
2021/06/06 06:15:38;;;;;;;103.87;60.50;;;17.90;99.90;;;;;;4940810;29;20497;-68
2021/06/06 06:18:05;;;;;;;92.90;57.30;;;17.80;99.90;;;;;;4941039;29;20470;-68
2021/06/06 06:20:32;;;;;;;79.67;55.27;;;17.80;99.90;;;;;;4940817;29;20490;-69
2021/06/06 06:22:58;;;;;;;89.00;55.27;;;17.80;99.90;;;;;;4940623;29;20465;-69
2021/06/06 06:25:24;;;;;;;77.40;52.57;;;17.80;99.90;;;;;;4940872;29;20466;-68
2021/06/06 06:27:50;;;;;;;73.50;51.27;;;17.80;99.90;;;;;;4942237;29;20934;-69
2021/06/06 06:30:21;;;;;;;74.87;51.50;;;17.80;99.90;;;;;;4940626;29;21013;-68
2021/06/06 06:32:48;;;;;;;68.80;50.30;;;17.80;99.90;;;;;;4943208;29;20579;-67
2021/06/06 06:35:15;;;;;;;68.67;49.20;;;17.70;99.90;;;;;;4941218;29;20465;-68
2021/06/06 06:37:41;;;;;;;67.83;47.80;;;17.70;99.90;;;;;;4942394;29;20498;-68
2021/06/06 06:40:10;;;;;;;63.87;48.60;;;17.70;99.90;;;;;;4941779;29;20581;-68
2021/06/06 06:42:36;;;;;;;65.20;47.73;;;17.70;99.90;;;;;;4941293;29;20473;-68
2021/06/06 06:45:04;;;;;;;66.83;47.30;;;17.70;99.90;;;;;;4942135;29;20488;-68
2021/06/06 06:47:30;;;;;;;71.10;48.17;;;17.70;99.90;;;;;;4941393;29;20469;-69
2021/06/06 06:49:56;;;;;;;62.87;46.87;;;17.70;99.90;;;;;;4936275;29;20465;-68
2021/06/06 06:52:24;;;;;;;67.60;49.80;;;17.80;99.90;;;;;;4934666;29;20620;-68
2021/06/06 06:54:50;;;;;;;66.93;46.90;;;17.80;99.90;;;;;;4938491;29;20469;-68
2021/06/06 06:57:17;;;;;;;62.60;47.40;;;17.80;99.90;;;;;;4939740;29;20485;-68
2021/06/06 06:59:43;;;;;;;67.23;49.47;;;17.80;99.90;;;;;;4937528;29;20465;-68
2021/06/06 07:02:10;;;;;;;64.23;44.10;;;17.80;99.90;;;;;;4934390;29;20493;-68
2021/06/06 07:04:36;;;;;;;68.27;47.30;;;17.90;99.90;;;;;;4935257;29;20469;-68
2021/06/06 07:07:03;;;;;;;62.77;48.87;;;17.90;99.90;;;;;;4934513;29;20477;-68
2021/06/06 07:09:30;;;;;;;67.40;48.17;;;18.00;99.90;;;;;;4935168;29;20481;-67
2021/06/06 07:11:57;;;;;;;58.27;45.73;;;18.10;99.90;;;;;;4934062;29;20569;-68
2021/06/06 07:14:24;;;;;;;56.33;45.13;;;18.10;99.90;;;;;;4935161;29;20477;-68
2021/06/06 07:16:50;;;;;;;55.70;43.67;;;18.20;99.90;;;;;;4934594;29;20497;-67
2021/06/06 07:19:16;;;;;;;54.80;44.43;;;18.10;99.90;;;;;;4935081;29;20635;-67
2021/06/06 07:21:42;;;;;;;53.67;44.97;;;18.20;99.90;;;;;;4934211;29;20894;-67
2021/06/06 07:24:09;;;;;;;58.83;45.13;;;18.20;99.90;;;;;;4934744;29;20521;-68
2021/06/06 07:26:40;;;;;;;56.50;46.33;;;18.20;99.90;;;;;;4934138;29;20466;-67
2021/06/06 07:29:09;;;;;;;56.57;45.10;;;18.20;99.90;;;;;;4934910;29;20528;-67
2021/06/06 07:31:36;;;;;;;57.50;44.50;;;18.20;99.90;;;;;;4937955;29;20496;-67
2021/06/06 07:34:02;;;;;;;57.60;44.00;;;18.20;99.90;;;;;;4938779;29;20516;-67
2021/06/06 07:36:29;;;;;;;56.97;42.80;;;18.20;99.90;;;;;;4938791;29;20579;-67
2021/06/06 07:38:55;;;;;;;61.40;46.43;;;18.30;99.90;;;;;;4938439;29;20469;-68
2021/06/06 07:41:23;;;;;;;58.00;43.53;;;18.30;99.90;;;;;;4938002;29;20977;-67
2021/06/06 07:43:50;;;;;;;60.17;43.70;;;18.20;99.90;;;;;;4938469;29;20461;-67
2021/06/06 07:46:18;;;;;;;56.20;40.67;;;18.20;99.90;;;;;;4938577;29;20468;-68
2021/06/06 07:48:45;;;;;;;54.20;41.50;;;18.20;99.90;;;;;;4938645;29;20465;-68
2021/06/06 07:51:12;;;;;;;58.40;41.77;;;18.20;99.90;;;;;;4938530;29;20611;-68
2021/06/06 07:53:38;;;;;;;58.07;42.10;;;18.20;99.90;;;;;;4937836;29;20468;-68
2021/06/06 07:56:05;;;;;;;53.40;41.87;;;18.30;99.90;;;;;;4937964;29;21121;-68
2021/06/06 07:58:34;;;;;;;59.47;43.70;;;18.20;99.90;;;;;;4938438;29;20472;-68
2021/06/06 08:01:02;;;;;;;53.13;39.90;;;18.20;99.90;;;;;;4938243;29;20545;-67
2021/06/06 08:03:29;;;;;;;62.43;43.57;;;18.20;99.90;;;;;;4938200;29;20516;-67
2021/06/06 08:05:56;;;;;;;58.63;40.63;;;18.20;99.90;;;;;;4937886;28;20520;-67
2021/06/06 08:08:22;;;;;;;58.57;41.27;;;18.30;99.90;;;;;;4937842;29;20849;-67
2021/06/06 08:10:51;;;;;;;50.93;39.40;;;18.20;99.90;;;;;;4937814;29;20934;-68
2021/06/06 08:13:17;;;;;;;50.70;37.57;;;18.20;99.90;;;;;;4938081;29;20473;-68
2021/06/06 08:15:45;;;;;;;51.03;38.57;;;18.20;99.90;;;;;;4938267;29;20492;-68
2021/06/06 08:18:15;;;;;;;51.40;38.23;;;18.30;99.90;;;;;;4938297;29;20524;-68
2021/06/06 08:20:46;;;;;;;53.20;38.40;;;18.30;99.90;;;;;;4937908;29;20834;-68
2021/06/06 08:23:13;;;;;;;58.23;40.63;;;18.30;99.90;;;;;;4937842;29;20474;-66
2021/06/06 08:25:40;;;;;;;51.27;38.23;;;18.30;99.90;;;;;;4937504;29;20513;-66
2021/06/06 08:28:07;;;;;;;53.10;37.80;;;18.30;99.90;;;;;;4937972;29;20470;-68
2021/06/06 08:30:37;;;;;;;56.33;40.63;;;18.30;99.90;;;;;;4938169;29;20485;-68
2021/06/06 08:33:04;;;;;;;56.70;39.90;;;18.30;99.90;;;;;;4937616;29;20461;-68
2021/06/06 08:35:32;;;;;;;48.67;36.30;;;18.40;99.90;;;;;;4937710;29;21005;-68
2021/06/06 08:37:59;;;;;;;52.57;37.83;;;18.40;99.90;;;;;;4937404;29;20520;-68
2021/06/06 08:40:30;;;;;;;50.70;37.30;;;18.40;99.90;;;;;;4937191;29;20480;-68
2021/06/06 08:42:56;;;;;;;50.80;37.80;;;18.40;99.90;;;;;;4936832;29;20476;-67
2021/06/06 08:45:31;;;;;;;52.30;39.73;;;18.40;99.90;;;;;;4937716;29;20994;-67
2021/06/06 08:47:59;;;;;;;51.03;37.67;;;18.50;99.90;;;;;;4938071;29;20465;-67
2021/06/06 08:50:30;;;;;;;51.77;38.97;;;18.60;99.90;;;;;;4938081;29;20513;-67
2021/06/06 08:53:06;;;;;;;53.00;36.13;;;18.70;99.90;;;;;;4937118;29;20470;-67
2021/06/06 08:55:41;;;;;;;49.60;36.33;;;18.90;99.90;;;;;;4937265;29;20477;-67
2021/06/06 08:58:19;;;;;;;46.73;35.60;;;18.90;99.90;;;;;;4937619;29;20552;-67
2021/06/06 09:00:50;;;;;;;48.20;35.30;;;19.00;99.90;;;;;;4937624;29;20500;-67
2021/06/06 09:03:23;;;;;;;42.83;34.83;;;19.10;99.90;;;;;;4940982;29;20462;-67
2021/06/06 09:06:00;;;;;;;46.30;34.53;;;19.30;99.90;;;;;;4937595;28;20457;-68
2021/06/06 09:08:30;;;;;;;39.73;33.10;;;19.50;99.90;;;;;;4937119;29;20465;-68
2021/06/06 09:10:59;;;;;;;43.73;34.17;;;19.50;99.90;;;;;;4936914;29;20529;-68
2021/06/06 09:13:30;;;;;;;42.70;33.50;;;19.50;99.90;;;;;;4936986;29;20482;-68
2021/06/06 09:16:09;;;;;;;43.47;35.07;;;19.50;99.90;;;;;;4936896;29;20518;-67
2021/06/06 09:18:35;;;;;;;46.80;36.37;;;19.50;99.90;;;;;;4937136;29;20469;-67
2021/06/06 09:21:10;;;;;;;44.13;35.43;;;19.60;99.90;;;;;;4936734;29;20517;-68
2021/06/06 09:23:38;;;;;;;39.53;33.30;;;19.70;99.90;;;;;;4936397;29;20568;-67
2021/06/06 09:26:08;;;;;;;37.17;31.33;;;19.90;99.90;;;;;;4936554;29;20529;-67
2021/06/06 09:28:36;;;;;;;37.67;31.47;;;19.90;99.90;;;;;;4937169;29;20954;-67
2021/06/06 09:31:05;;;;;;;35.50;30.80;;;19.90;99.90;;;;;;4937069;29;20496;-67
2021/06/06 09:33:36;;;;;;;38.23;30.80;;;19.90;99.90;;;;;;4936364;29;20462;-67
2021/06/06 09:36:06;;;;;;;34.50;29.37;;;19.80;99.90;;;;;;4936751;29;20500;-67
2021/06/06 09:38:38;;;;;;;37.20;33.23;;;19.80;99.90;;;;;;4936062;29;20465;-67
2021/06/06 09:41:15;;;;;;;35.93;32.00;;;19.90;99.90;;;;;;4935866;29;20562;-68
2021/06/06 09:43:43;;;;;;;37.23;31.00;;;20.10;99.90;;;;;;4936101;29;20969;-67
2021/06/06 09:46:13;;;;;;;38.70;30.70;;;20.20;99.90;;;;;;4936184;29;20462;-68
2021/06/06 09:48:43;;;;;;;35.23;31.43;;;20.40;99.90;;;;;;4936564;29;20466;-68
2021/06/06 09:51:14;;;;;;;32.50;28.77;;;20.50;99.90;;;;;;4936580;29;20647;-69
2021/06/06 09:53:43;;;;;;;31.63;28.30;;;20.70;99.90;;;;;;4934386;29;20938;-67
2021/06/06 09:56:15;;;;;;;32.33;28.83;;;20.90;99.90;;;;;;4935611;29;20482;-68
2021/06/06 09:58:43;;;;;;;33.40;29.73;;;21.00;99.90;;;;;;4935941;29;20476;-68
2021/06/06 10:01:23;;;;;;;32.50;28.03;;;20.90;99.90;;;;;;4935746;29;21028;-67
2021/06/06 10:03:55;;;;;;;33.80;28.30;;;20.90;99.90;;;;;;4936020;29;20507;-68
2021/06/06 10:06:28;;;;;;;32.53;28.87;;;20.90;99.90;;;;;;4935440;28;20986;-67
2021/06/06 10:09:04;;;;;;;32.00;28.60;;;21.00;99.90;;;;;;4935611;29;20472;-65
2021/06/06 10:11:36;;;;;;;32.00;28.70;;;21.10;99.90;;;;;;4935372;29;20538;-69
2021/06/06 10:14:04;;;;;;;32.73;28.03;;;21.30;99.90;;;;;;4936052;29;20477;-68
2021/06/06 10:16:36;;;;;;;30.47;27.27;;;21.40;99.90;;;;;;4935940;29;20977;-68
2021/06/06 10:19:07;;;;;;;32.00;28.23;;;21.40;99.90;;;;;;4936143;29;20481;-67
2021/06/06 10:21:36;;;;;;;30.13;27.10;;;21.40;99.90;;;;;;4935439;29;21001;-68
2021/06/06 10:24:09;;;;;;;32.20;27.20;;;21.40;99.90;;;;;;4936346;29;20474;-67
2021/06/06 10:26:38;;;;;;;30.60;26.87;;;21.20;99.90;;;;;;4935611;29;20469;-68
2021/06/06 10:29:10;;;;;;;32.27;27.73;;;21.20;99.90;;;;;;4936011;29;20496;-67
2021/06/06 10:31:40;;;;;;;35.33;28.67;;;21.10;99.90;;;;;;4935341;29;20628;-67
2021/06/06 10:34:12;;;;;;;30.27;26.40;;;21.10;99.90;;;;;;4935489;29;20461;-68
2021/06/06 10:36:40;;;;;;;29.27;25.67;;;21.10;99.90;;;;;;4935409;29;20494;-67
2021/06/06 10:39:09;;;;;;;32.27;26.57;;;21.30;99.90;;;;;;4935751;29;20839;-68
2021/06/06 10:41:42;;;;;;;32.30;25.43;;;21.50;99.90;;;;;;4935380;29;20488;-68
2021/06/06 10:44:18;;;;;;;29.23;24.30;;;21.70;99.90;;;;;;4935767;29;20465;-67
2021/06/06 10:46:49;;;;;;;28.87;23.80;;;21.80;99.90;;;;;;4935533;29;20965;-68
2021/06/06 10:49:21;;;;;;;30.77;25.00;;;21.70;99.90;;;;;;4936234;29;20465;-68
2021/06/06 10:51:54;;;;;;;27.50;24.50;;;21.40;99.90;;;;;;4935313;29;20902;-68
2021/06/06 10:54:44;;;;;;;28.43;23.87;;;21.30;99.90;;;;;;4935742;29;20465;-68
2021/06/06 10:57:12;;;;;;;26.63;23.77;;;21.40;99.90;;;;;;4932183;29;20501;-68
2021/06/06 10:59:46;;;;;;;29.33;24.70;;;21.40;99.90;;;;;;4935937;29;20807;-68
2021/06/06 11:02:27;;;;;;;27.43;22.50;;;21.60;99.90;;;;;;4935365;29;20513;-68
2021/06/06 11:04:56;;;;;;;29.63;23.93;;;21.60;99.90;;;;;;4935519;29;20470;-68
2021/06/06 11:07:38;;;;;;;24.77;22.13;;;21.60;99.90;;;;;;4935226;29;20478;-67
2021/06/06 11:10:27;;;;;;;24.40;21.13;;;21.90;99.90;;;;;;4934991;29;20465;-67
2021/06/06 11:12:56;;;;;;;22.47;20.17;;;22.10;99.90;;;;;;4935381;29;20565;-67
2021/06/06 11:15:32;;;;;;;23.93;21.50;;;22.30;99.90;;;;;;4935498;29;20465;-67
2021/06/06 11:18:08;;;;;;;22.77;20.53;;;22.40;99.90;;;;;;4935435;29;20517;-67
2021/06/06 11:20:47;;;;;;;24.20;21.73;;;22.50;99.90;;;;;;4935351;29;20508;-67
2021/06/06 11:23:16;;;;;;;24.73;22.10;;;22.60;99.90;;;;;;4934748;29;20477;-67
2021/06/06 11:25:48;;;;;;;26.70;22.87;;;22.70;99.90;;;;;;4934880;29;20473;-67
2021/06/06 11:28:30;;;;;;;22.80;20.50;;;22.60;99.90;;;;;;4935278;29;20469;-67
2021/06/06 11:30:57;;;;;;;24.33;20.77;;;22.70;99.90;;;;;;4935382;29;20584;-67
2021/06/06 11:33:38;;;;;;;20.87;18.93;;;22.60;99.90;;;;;;4935106;29;20465;-67
2021/06/06 11:36:05;;;;;;;22.33;20.03;;;22.60;99.90;;;;;;4935229;29;20803;-67
2021/06/06 11:38:42;;;;;;;22.50;20.10;;;22.60;99.90;;;;;;4934681;29;20465;-67
2021/06/06 11:41:29;;;;;;;24.23;21.80;;;22.60;99.90;;;;;;4935301;29;20540;-68
2021/06/06 11:43:57;;;;;;;26.07;23.27;;;22.50;99.90;;;;;;4935448;29;20503;-69
2021/06/06 11:46:29;;;;;;;24.53;21.90;;;22.60;99.90;;;;;;4935603;29;20462;-69
2021/06/06 11:49:02;;;;;;;24.23;21.73;;;22.70;99.90;;;;;;4935470;29;20465;-69
2021/06/06 11:51:38;;;;;;;23.93;21.33;;;22.70;99.90;;;;;;4945157;29;20485;-69
2021/06/06 11:54:11;;;;;;;26.00;22.60;;;22.50;99.90;;;;;;4951044;29;20481;-69
2021/06/06 11:56:40;;;;;;;26.40;23.47;;;22.40;99.90;;;;;;4950243;29;20490;-69
2021/06/06 11:59:20;;;;;;;25.57;22.83;;;22.20;99.90;;;;;;4948743;29;20473;-69
2021/06/06 12:01:50;;;;;;;24.67;21.87;;;21.90;99.90;;;;;;4945149;29;20493;-70
2021/06/06 12:04:19;;;;;;;25.67;21.60;;;21.70;99.90;;;;;;4943157;29;20481;-69
2021/06/06 12:06:46;;;;;;;24.70;22.10;;;21.80;99.90;;;;;;4941075;29;20478;-70
2021/06/06 12:09:17;;;;;;;23.20;20.80;;;21.70;99.90;;;;;;4936876;29;20462;-68
2021/06/06 12:11:44;;;;;;;24.13;21.77;;;21.70;99.90;;;;;;4934495;29;20489;-68
2021/06/06 12:14:15;;;;;;;23.90;21.60;;;21.70;99.90;;;;;;4935007;29;20834;-68
2021/06/06 12:16:47;;;;;;;23.90;20.53;;;21.90;99.90;;;;;;4935683;29;20564;-69
2021/06/06 12:19:16;;;;;;;23.30;20.90;;;22.10;99.90;;;;;;4939052;29;20521;-68
2021/06/06 12:21:44;;;;;;;22.70;20.27;;;22.30;99.90;;;;;;4938356;29;20849;-69
2021/06/06 12:24:16;;;;;;;22.30;20.20;;;22.40;99.90;;;;;;4938193;29;20949;-68
2021/06/06 12:26:46;;;;;;;23.90;21.53;;;22.40;99.90;;;;;;4937815;29;20554;-68
2021/06/06 12:29:13;;;;;;;23.77;21.67;;;22.20;99.90;;;;;;4938605;29;20461;-68
2021/06/06 12:31:42;;;;;;;25.20;22.50;;;21.90;99.90;;;;;;4938309;29;20485;-68
2021/06/06 12:34:17;;;;;;;27.90;24.90;;;21.80;99.90;;;;;;4938449;29;20473;-68
2021/06/06 12:36:44;;;;;;;25.40;22.80;;;21.60;99.90;;;;;;4940001;29;20492;-68
2021/06/06 12:39:14;;;;;;;24.90;22.30;;;21.50;99.90;;;;;;4938626;29;20552;-68
2021/06/06 12:41:43;;;;;;;26.40;23.80;;;21.40;99.90;;;;;;4937886;29;20497;-68
2021/06/06 12:44:13;;;;;;;26.10;23.33;;;21.30;99.90;;;;;;4938332;29;20461;-68
2021/06/06 12:46:51;;;;;;;25.37;22.77;;;21.30;99.90;;;;;;4938382;29;20454;-68
2021/06/06 12:49:33;;;;;;;24.93;22.37;;;21.20;99.90;;;;;;4938276;29;20469;-68
2021/06/06 12:52:05;;;;;;;27.13;24.23;;;21.20;99.90;;;;;;4937649;29;20508;-70
2021/06/06 12:54:37;;;;;;;25.67;23.00;;;21.20;99.90;;;;;;4938986;29;20896;-70
2021/06/06 12:57:07;;;;;;;28.37;25.47;;;21.10;99.90;;;;;;4937231;29;20846;-70
2021/06/06 12:59:35;;;;;;;25.00;22.20;;;21.00;99.90;;;;;;4938083;29;20476;-69
2021/06/06 13:02:08;;;;;;;25.87;23.30;;;21.00;99.90;;;;;;4937080;29;20563;-69
2021/06/06 13:04:35;;;;;;;26.47;23.87;;;20.90;99.90;;;;;;4938461;29;21012;-70
2021/06/06 13:07:01;;;;;;;25.67;22.97;;;20.90;99.90;;;;;;4937546;28;20476;-70
2021/06/06 13:09:30;;;;;;;23.57;21.23;;;20.90;99.90;;;;;;4937810;29;20662;-68
2021/06/06 13:12:16;;;;;;;24.03;21.67;;;20.90;99.90;;;;;;4936793;29;20548;-70
2021/06/06 13:15:00;;;;;;;24.20;21.73;;;21.00;99.90;;;;;;4937761;29;20474;-68
2021/06/06 13:17:34;;;;;;;23.73;21.33;;;21.10;99.90;;;;;;4937083;29;20493;-69
2021/06/06 13:20:17;;;;;;;23.77;21.30;;;21.20;99.90;;;;;;4937417;29;20465;-69
2021/06/06 13:23:07;;;;;;;26.17;23.37;;;21.20;99.90;;;;;;4937533;29;20998;-68
2021/06/06 13:25:39;;;;;;;23.00;20.70;;;21.20;99.90;;;;;;4937011;29;20470;-67
2021/06/06 13:28:14;;;;;;;24.03;21.53;;;21.20;99.90;;;;;;4937515;29;20462;-69
2021/06/06 13:30:44;;;;;;;24.03;21.53;;;21.20;99.90;;;;;;4938003;29;20856;-69
2021/06/06 13:33:13;;;;;;;23.17;20.93;;;21.10;99.90;;;;;;4938164;29;20476;-68
2021/06/06 13:35:40;;;;;;;22.73;20.13;;;21.20;99.90;;;;;;4938342;29;20470;-68
2021/06/06 13:38:07;;;;;;;22.40;20.40;;;21.20;99.90;;;;;;4936659;29;20489;-70
2021/06/06 13:40:36;;;;;;;22.23;20.03;;;21.20;99.90;;;;;;4936483;29;20544;-68
2021/06/06 13:43:02;;;;;;;23.67;21.10;;;21.20;99.90;;;;;;4936189;29;20465;-68
2021/06/06 13:45:31;;;;;;;23.73;21.20;;;21.00;99.90;;;;;;4936895;29;20470;-68
2021/06/06 13:48:01;;;;;;;23.17;20.77;;;20.90;99.90;;;;;;4936798;29;20832;-70
2021/06/06 13:50:31;;;;;;;24.33;21.73;;;20.80;99.90;;;;;;4936805;29;20513;-69
2021/06/06 13:52:58;;;;;;;29.33;22.97;;;20.80;99.90;;;;;;4936764;29;20530;-69
2021/06/06 13:55:29;;;;;;;23.87;21.47;;;20.70;99.90;;;;;;4936143;29;20465;-68
2021/06/06 13:57:56;;;;;;;25.10;22.40;;;20.80;99.90;;;;;;4936780;29;20788;-69
2021/06/06 14:00:27;;;;;;;26.20;23.40;;;20.80;99.90;;;;;;4937176;29;20478;-70
2021/06/06 14:02:56;;;;;;;25.40;22.90;;;20.80;99.90;;;;;;4937029;29;20458;-69
2021/06/06 14:05:25;;;;;;;24.00;21.60;;;20.80;99.90;;;;;;4937479;29;20617;-67
2021/06/06 14:07:51;;;;;;;26.90;24.20;;;20.90;99.90;;;;;;4936828;29;20477;-70
2021/06/06 14:10:34;;;;;;;26.10;23.43;;;21.00;99.90;;;;;;4936425;29;20476;-70
2021/06/06 14:13:01;;;;;;;24.47;22.00;;;21.10;99.90;;;;;;4937359;29;20470;-68
2021/06/06 14:15:27;;;;;;;23.57;21.27;;;21.20;99.90;;;;;;4937113;29;20461;-70
2021/06/06 14:17:53;;;;;;;21.93;19.87;;;21.20;99.90;;;;;;4936853;29;20493;-68
2021/06/06 14:20:23;;;;;;;23.10;20.73;;;21.30;99.90;;;;;;4936631;29;20492;-68
2021/06/06 14:22:52;;;;;;;23.97;21.77;;;21.30;99.90;;;;;;4935836;29;20929;-68
2021/06/06 14:25:22;;;;;;;23.53;21.30;;;21.30;99.90;;;;;;4935435;29;20482;-68
2021/06/06 14:27:49;;;;;;;24.33;22.13;;;21.30;99.90;;;;;;4936150;29;20573;-68
2021/06/06 14:30:22;;;;;;;24.77;22.47;;;21.30;99.90;;;;;;4936521;29;20466;-68
2021/06/06 14:32:48;;;;;;;24.90;22.40;;;21.20;99.90;;;;;;4936188;29;20492;-69
2021/06/06 14:35:15;;;;;;;23.03;20.83;;;21.30;99.90;;;;;;4935858;29;20594;-69
2021/06/06 14:37:42;;;;;;;24.53;21.97;;;21.40;99.90;;;;;;4935902;29;20892;-69
2021/06/06 14:40:12;;;;;;;25.30;22.90;;;21.40;99.90;;;;;;4935903;29;20525;-69
2021/06/06 14:42:39;;;;;;;25.70;23.30;;;21.40;99.90;;;;;;4936577;29;20566;-69
2021/06/06 14:45:08;;;;;;;24.60;22.00;;;21.50;99.90;;;;;;4936372;29;20894;-69
2021/06/06 14:47:35;;;;;;;25.30;23.00;;;21.50;99.90;;;;;;4935889;29;20465;-70
2021/06/06 14:50:01;;;;;;;24.67;22.37;;;21.60;99.90;;;;;;4936111;29;20469;-69
2021/06/06 14:52:27;;;;;;;24.63;22.07;;;21.60;99.90;;;;;;4935117;29;20493;-69
2021/06/06 14:54:53;;;;;;;23.37;21.20;;;21.60;99.90;;;;;;4936478;29;20473;-69
2021/06/06 14:57:21;;;;;;;23.17;21.07;;;21.70;99.90;;;;;;4935813;29;20485;-69
2021/06/06 14:59:47;;;;;;;23.07;20.83;;;21.60;99.90;;;;;;4936172;29;20465;-70
2021/06/06 15:02:14;;;;;;;22.27;20.07;;;21.60;99.90;;;;;;4935217;29;21006;-70
2021/06/06 15:04:41;;;;;;;23.17;20.90;;;21.60;99.90;;;;;;4935770;29;20893;-70
2021/06/06 15:07:08;;;;;;;23.33;20.67;;;21.60;99.90;;;;;;4935308;29;20561;-69
2021/06/06 15:09:34;;;;;;;23.47;21.27;;;21.50;99.90;;;;;;4936306;29;20603;-69
2021/06/06 15:12:01;;;;;;;23.13;20.93;;;21.30;99.90;;;;;;4935439;29;20489;-69
2021/06/06 15:14:28;;;;;;;25.33;22.87;;;21.30;99.90;;;;;;4936199;29;20469;-70
2021/06/06 15:16:55;;;;;;;23.93;21.50;;;21.20;99.90;;;;;;4936011;29;20486;-69
2021/06/06 15:19:22;;;;;;;23.03;20.70;;;21.10;99.90;;;;;;4936556;29;20466;-69
2021/06/06 15:21:48;;;;;;;23.77;21.57;;;21.20;99.90;;;;;;4935231;29;20489;-69
2021/06/06 15:24:16;;;;;;;23.50;21.20;;;21.10;99.90;;;;;;4935786;29;20469;-69
2021/06/06 15:26:45;;;;;;;22.50;20.33;;;21.10;99.90;;;;;;4935021;29;20473;-69
2021/06/06 15:29:13;;;;;;;22.03;19.83;;;21.20;99.90;;;;;;4935939;29;20954;-69
2021/06/06 15:31:42;;;;;;;24.10;21.53;;;21.20;99.90;;;;;;4936005;29;20496;-70
2021/06/06 15:34:09;;;;;;;22.50;20.30;;;21.10;99.90;;;;;;4935441;29;20520;-70
2021/06/06 15:36:37;;;;;;;23.23;20.87;;;21.10;99.90;;;;;;4935272;29;20485;-69
2021/06/06 15:39:05;;;;;;;22.30;20.10;;;21.10;99.90;;;;;;4936075;29;20488;-70
2021/06/06 15:41:31;;;;;;;22.83;20.53;;;21.10;99.90;;;;;;4935368;29;20827;-69
2021/06/06 15:43:58;;;;;;;24.27;21.80;;;21.10;99.90;;;;;;4935803;29;20469;-70
2021/06/06 15:46:28;;;;;;;22.97;20.77;;;21.10;99.90;;;;;;4935575;29;20489;-70
2021/06/06 15:48:56;;;;;;;24.97;21.63;;;21.10;99.90;;;;;;4935831;29;20639;-69
2021/06/06 15:51:25;;;;;;;23.97;21.57;;;21.00;99.90;;;;;;4936576;29;20493;-70
2021/06/06 15:53:51;;;;;;;24.13;21.83;;;21.00;99.90;;;;;;4939153;29;20465;-70
2021/06/06 15:56:17;;;;;;;22.73;20.47;;;21.10;99.90;;;;;;4938690;29;20552;-70
2021/06/06 15:58:44;;;;;;;27.47;21.90;;;21.10;99.90;;;;;;4938452;29;20468;-69
2021/06/06 16:01:11;;;;;;;24.57;22.07;;;21.00;99.90;;;;;;4938423;29;20559;-69
2021/06/06 16:03:40;;;;;;;24.50;21.90;;;20.90;99.90;;;;;;4939284;29;20476;-69
2021/06/06 16:06:13;;;;;;;22.73;20.33;;;20.90;99.90;;;;;;4938811;29;20880;-69
2021/06/06 16:08:39;;;;;;;22.70;20.30;;;20.90;99.90;;;;;;4938507;29;20552;-69
2021/06/06 16:11:08;;;;;;;26.23;23.67;;;20.90;99.90;;;;;;4938480;29;20540;-69
2021/06/06 16:13:35;;;;;;;24.73;22.30;;;20.90;99.90;;;;;;4938174;29;20461;-69
2021/06/06 16:16:02;;;;;;;22.17;19.97;;;20.90;99.90;;;;;;4938179;29;20949;-69
2021/06/06 16:18:28;;;;;;;21.93;19.90;;;20.80;99.90;;;;;;4938678;29;20493;-69
2021/06/06 16:20:55;;;;;;;23.00;21.00;;;20.80;99.90;;;;;;4938447;29;20549;-69
2021/06/06 16:23:23;;;;;;;24.20;21.90;;;20.80;99.90;;;;;;4937918;29;20473;-69
2021/06/06 16:25:49;;;;;;;22.17;20.00;;;20.70;99.90;;;;;;4937695;29;20517;-69
2021/06/06 16:28:15;;;;;;;22.43;20.20;;;20.60;99.90;;;;;;4937566;29;20931;-69
2021/06/06 16:30:41;;;;;;;22.80;20.50;;;20.50;99.90;;;;;;4937555;29;21057;-69
2021/06/06 16:33:09;;;;;;;22.37;20.23;;;20.50;99.90;;;;;;4937574;29;20465;-69
2021/06/06 16:35:36;;;;;;;25.00;22.13;;;20.50;99.90;;;;;;4937611;29;20942;-69